Time;durP1;ratioP1;P1;durP2;ratioP2;P2;SDS_P1;SDS_P2;PMS_P1;PMS_P2;Temp;Humidity;BMP_temperature;BMP_pressure;BME280_temperature;BME280_humidity;BME280_pressure;Samples;Min_cycle;Max_cycle;Signal;HPM_P1;HPM_P2
2020/12/28 00:00:08;;;;;;;23.13;11.98;;;;;;;-3.62;96.01;100248.59;4939425;29;20138;-73
2020/12/28 00:02:58;;;;;;;20.48;12.52;;;;;;;-3.66;96.06;100244.41;4952279;29;20051;-69
2020/12/28 00:05:45;;;;;;;24.08;12.55;;;;;;;-3.66;96.74;100241.00;4939796;28;20134;-68
2020/12/28 00:08:31;;;;;;;22.55;12.00;;;;;;;-3.66;96.07;100238.44;4939287;29;20431;-67
2020/12/28 00:11:19;;;;;;;20.38;11.52;;;;;;;-3.70;95.92;100237.66;4938953;29;20141;-69
2020/12/28 00:14:05;;;;;;;21.15;11.63;;;;;;;-3.69;96.95;100244.47;4939150;29;20102;-71
2020/12/28 00:16:52;;;;;;;18.90;11.27;;;;;;;-3.70;96.07;100224.06;4939784;29;20047;-66
2020/12/28 00:19:39;;;;;;;21.42;11.38;;;;;;;-3.70;96.99;100231.72;4937441;29;20055;-69
2020/12/28 00:22:25;;;;;;;21.33;11.88;;;;;;;-3.73;96.28;100227.47;4939324;29;20086;-66
2020/12/28 00:25:12;;;;;;;20.45;11.32;;;;;;;-3.70;96.81;100231.72;4939258;29;20043;-68
2020/12/28 00:27:59;;;;;;;22.77;11.00;;;;;;;-3.71;96.40;100233.41;4939370;29;20051;-68
2020/12/28 00:30:46;;;;;;;20.42;11.05;;;;;;;-3.70;96.57;100241.94;4938346;28;20055;-70
2020/12/28 00:33:32;;;;;;;20.80;11.50;;;;;;;-3.71;96.13;100241.06;4938386;29;20487;-71
2020/12/28 00:36:18;;;;;;;20.15;12.10;;;;;;;-3.72;96.90;100247.03;4939252;29;20043;-69
2020/12/28 00:39:06;;;;;;;18.00;11.45;;;;;;;-3.71;97.32;100246.19;4939345;29;20134;-71
2020/12/28 00:41:52;;;;;;;24.08;11.63;;;;;;;-3.71;97.00;100243.63;4952264;29;20047;-67
2020/12/28 00:44:38;;;;;;;19.13;11.45;;;;;;;-3.72;97.09;100243.66;4938957;29;20055;-68
2020/12/28 00:47:25;;;;;;;18.67;10.77;;;;;;;-3.72;97.31;100248.75;4938598;29;20043;-67
2020/12/28 00:50:12;;;;;;;22.65;11.90;;;;;;;-3.69;96.67;100248.72;4952200;29;20058;-68
2020/12/28 00:52:59;;;;;;;20.98;11.52;;;;;;;-3.72;97.68;100241.94;4939023;29;20055;-69
2020/12/28 00:55:50;;;;;;;22.30;11.05;;;;;;;-3.72;97.08;100239.38;4927211;29;20058;-67
2020/12/28 00:58:37;;;;;;;19.58;11.45;;;;;;;-3.70;97.70;100239.38;4934122;29;20047;-69
2020/12/28 01:01:25;;;;;;;18.02;10.90;;;;;;;-3.70;96.87;100237.66;4934833;29;20510;-67
2020/12/28 01:04:12;;;;;;;22.35;11.77;;;;;;;-3.70;97.34;100237.66;4936416;29;20565;-74
2020/12/28 01:07:09;;;;;;;21.85;10.43;;;;;;;-3.69;97.82;100238.50;4939162;29;20137;-71
2020/12/28 01:10:13;;;;;;;21.17;10.60;;;;;;;-3.70;97.38;100229.16;4941468;29;20503;-71
2020/12/28 01:13:07;;;;;;;22.20;13.13;;;;;;;-3.71;97.66;100230.84;4925336;29;20414;-71
2020/12/28 01:15:55;;;;;;;20.38;11.35;;;;;;;-3.71;97.55;100224.88;4938579;29;20055;-66
2020/12/28 01:18:44;;;;;;;22.10;12.13;;;;;;;-3.69;97.56;100241.06;4926199;29;20502;-70
2020/12/28 01:21:38;;;;;;;19.48;11.10;;;;;;;-3.69;97.93;100230.84;4926070;29;20054;-68
2020/12/28 01:24:25;;;;;;;21.15;10.48;;;;;;;-3.67;98.06;100234.22;4931064;29;20588;-68
2020/12/28 01:27:12;;;;;;;20.52;10.90;;;;;;;-3.69;97.55;100223.19;4955784;28;20513;-67
2020/12/28 01:29:59;;;;;;;19.33;10.23;;;;;;;-3.66;97.65;100241.84;4926750;29;20462;-67
2020/12/28 01:32:46;;;;;;;17.15;10.73;;;;;;;-3.64;98.13;100236.72;4939935;29;20086;-67
2020/12/28 01:35:50;;;;;;;20.50;10.35;;;;;;;-3.65;98.63;100246.13;4942229;29;20050;-70
2020/12/28 01:38:37;;;;;;;18.77;9.95;;;;;;;-3.63;98.21;100240.97;4942372;29;20070;-72
2020/12/28 01:41:23;;;;;;;21.50;11.70;;;;;;;-3.62;98.11;100242.66;4928739;29;20048;-69
2020/12/28 01:44:10;;;;;;;19.63;10.75;;;;;;;-3.59;97.62;100241.78;4928460;29;20059;-69
2020/12/28 01:47:00;;;;;;;18.38;10.75;;;;;;;-3.61;97.70;100245.22;4941439;29;20043;-69
2020/12/28 01:49:49;;;;;;;15.63;9.20;;;;;;;-3.58;97.41;100248.56;4952818;29;20054;-69
2020/12/28 01:52:36;;;;;;;16.73;9.85;;;;;;;-3.55;97.31;100258.75;4942259;29;20062;-69
2020/12/28 01:55:23;;;;;;;17.73;9.98;;;;;;;-3.53;97.68;100250.19;4929022;29;20138;-70
2020/12/28 01:58:20;;;;;;;18.45;9.95;;;;;;;-3.52;96.82;100263.81;4941851;28;20078;-70
2020/12/28 02:01:09;;;;;;;16.73;9.13;;;;;;;-3.50;97.48;100259.53;4941461;29;20043;-71
2020/12/28 02:03:57;;;;;;;15.70;8.40;;;;;;;-3.50;96.95;100247.59;4938490;29;20423;-68
2020/12/28 02:06:50;;;;;;;15.25;8.60;;;;;;;-3.48;97.25;100250.97;4954271;28;20526;-68
2020/12/28 02:09:44;;;;;;;14.43;7.93;;;;;;;-3.47;96.60;100244.97;4927854;29;20055;-72
2020/12/28 02:12:31;;;;;;;12.88;7.88;;;;;;;-3.46;97.16;100239.03;4928484;29;20086;-69
2020/12/28 02:15:18;;;;;;;13.88;8.07;;;;;;;-3.44;96.85;100246.66;4928129;28;20047;-68
2020/12/28 02:18:43;;;;;;;13.52;7.97;;;;;;;-3.43;96.01;100254.28;4936634;29;20091;-68
2020/12/28 02:21:38;;;;;;;13.98;8.70;;;;;;;-3.41;95.87;100250.03;4927613;28;20047;-71
2020/12/28 02:24:28;;;;;;;11.68;7.10;;;;;;;-3.40;95.47;100238.91;4927937;29;20502;-68
2020/12/28 02:27:14;;;;;;;12.27;6.82;;;;;;;-3.40;95.22;100243.19;4927736;29;20063;-65
2020/12/28 02:30:01;;;;;;;12.70;7.13;;;;;;;-3.36;95.29;100245.69;4927776;29;20043;-71
2020/12/28 02:32:52;;;;;;;12.07;6.65;;;;;;;-3.35;95.06;100242.25;4927687;29;20051;-70
2020/12/28 02:36:10;;;;;;;10.88;6.20;;;;;;;-3.36;95.14;100239.72;4936011;29;20043;-71
2020/12/28 02:38:57;;;;;;;10.02;6.15;;;;;;;-3.36;95.41;100242.28;4940765;29;20573;-72
2020/12/28 02:41:44;;;;;;;10.63;6.28;;;;;;;-3.35;94.59;100243.97;4927561;29;20083;-70
2020/12/28 02:44:49;;;;;;;9.02;5.50;;;;;;;-3.35;94.66;100242.25;4953679;29;20051;-70
2020/12/28 02:47:54;;;;;;;11.60;5.82;;;;;;;-3.34;93.94;100250.75;4954027;29;20094;-65
2020/12/28 02:50:59;;;;;;;9.05;5.63;;;;;;;-3.31;93.55;100260.09;4940320;29;20043;-71
2020/12/28 02:54:03;;;;;;;10.35;5.40;;;;;;;-3.35;93.51;100257.59;4956473;28;20091;-70
2020/12/28 02:57:12;;;;;;;8.20;4.68;;;;;;;-3.31;93.47;100260.09;4954366;28;20086;-70
2020/12/28 03:00:17;;;;;;;10.77;5.53;;;;;;;-3.31;92.98;100255.84;4953733;28;20534;-69
2020/12/28 03:03:22;;;;;;;6.82;4.65;;;;;;;-3.31;93.10;100249.88;4953823;28;20146;-68
2020/12/28 03:06:34;;;;;;;10.10;4.90;;;;;;;-3.32;94.15;100254.16;4930911;29;20059;-68
2020/12/28 03:09:39;;;;;;;8.25;5.30;;;;;;;-3.33;93.27;100262.66;4951842;28;20047;-71
2020/12/28 03:12:44;;;;;;;9.40;5.15;;;;;;;-3.31;93.97;100257.56;4953466;29;20047;-68
2020/12/28 03:15:49;;;;;;;9.52;5.45;;;;;;;-3.34;93.30;100243.09;4953631;28;20043;-68
2020/12/28 03:18:54;;;;;;;9.57;5.25;;;;;;;-3.34;93.68;100250.75;4953009;28;20043;-66
2020/12/28 03:21:59;;;;;;;8.13;5.15;;;;;;;-3.33;93.29;100257.56;4953409;29;20043;-70
2020/12/28 03:25:04;;;;;;;9.57;4.97;;;;;;;-3.35;93.46;100260.16;4953524;29;20048;-67
2020/12/28 03:28:09;;;;;;;7.28;4.35;;;;;;;-3.32;93.64;100274.63;4940045;29;20051;-70
2020/12/28 03:31:14;;;;;;;;;;;;;;;-3.37;93.13;100279.78;4953492;29;20083;-73
2020/12/28 03:34:19;;;;;;;7.78;4.15;;;;;;;-3.36;93.47;100270.41;4966702;28;20016;-72
2020/12/28 03:37:24;;;;;;;6.28;4.03;;;;;;;-3.34;93.23;100276.31;4953276;29;20459;-69
2020/12/28 03:40:29;;;;;;;7.25;4.28;;;;;;;-3.35;93.37;100278.03;4934400;29;20043;-71
2020/12/28 03:43:34;;;;;;;7.05;4.53;;;;;;;-3.35;93.31;100289.97;4952973;28;20047;-68
2020/12/28 03:46:39;;;;;;;6.00;3.78;;;;;;;-3.30;92.55;100300.16;4953957;28;20159;-70
2020/12/28 03:49:44;;;;;;;;;;;;;;;-3.31;92.12;100304.41;4953284;29;20039;-67
2020/12/28 03:52:49;;;;;;;6.43;3.90;;;;;;;-3.33;92.27;100287.41;4966271;28;20316;-67
2020/12/28 03:55:54;;;;;;;6.95;3.70;;;;;;;-3.34;93.03;100291.66;4939459;29;20047;-66
2020/12/28 03:58:59;;;;;;;6.47;4.03;;;;;;;-3.30;92.95;100284.81;4953393;29;20047;-68
2020/12/28 04:02:04;;;;;;;5.47;3.50;;;;;;;-3.29;93.08;100302.66;4952871;29;20039;-69
2020/12/28 04:05:09;;;;;;;7.38;3.92;;;;;;;-3.31;92.21;100288.25;4952565;29;20043;-71
2020/12/28 04:08:14;;;;;;;7.07;3.63;;;;;;;-3.29;92.81;100302.66;4952849;28;20055;-68
2020/12/28 04:11:19;;;;;;;5.95;3.60;;;;;;;-3.25;92.18;100293.25;4952477;29;20531;-69
2020/12/28 04:14:17;;;;;;;6.82;4.03;;;;;;;-3.25;93.18;100301.75;4950895;28;20055;-71
2020/12/28 04:17:04;;;;;;;7.38;3.67;;;;;;;-3.25;93.00;100280.47;4938959;29;20043;-70
2020/12/28 04:19:50;;;;;;;6.43;4.05;;;;;;;-3.24;92.92;100294.94;4938798;29;20106;-71
2020/12/28 04:22:37;;;;;;;7.22;4.22;;;;;;;-3.24;92.15;100303.44;4966201;28;20075;-71
2020/12/28 04:25:23;;;;;;;9.25;4.20;;;;;;;-3.26;92.26;100287.28;4939248;29;20077;-71
2020/12/28 04:28:09;;;;;;;6.65;3.38;;;;;;;-3.27;92.62;100280.50;4936039;29;20593;-66
2020/12/28 04:30:56;;;;;;;5.53;3.28;;;;;;;-3.27;91.69;100282.22;4952406;29;20051;-66
2020/12/28 04:33:42;;;;;;;8.77;4.43;;;;;;;-3.27;92.12;100282.22;4938957;29;20055;-67
2020/12/28 04:36:29;;;;;;;7.05;3.75;;;;;;;-3.26;92.16;100286.44;4939264;29;20387;-66
2020/12/28 04:39:15;;;;;;;6.07;3.90;;;;;;;-3.29;92.28;100289.88;4939553;29;20051;-68
2020/12/28 04:42:02;;;;;;;5.50;3.72;;;;;;;-3.27;91.33;100290.72;4952139;29;20098;-66
2020/12/28 04:44:49;;;;;;;7.22;4.43;;;;;;;-3.28;91.91;100283.91;4942224;29;20070;-68
2020/12/28 04:47:36;;;;;;;7.28;4.03;;;;;;;-3.29;91.41;100294.16;4939247;29;20058;-67
2020/12/28 04:50:23;;;;;;;6.88;3.88;;;;;;;-3.29;92.06;100291.59;4936469;29;20398;-71
2020/12/28 04:53:09;;;;;;;6.18;3.38;;;;;;;-3.33;91.44;100290.78;4951579;28;20058;-70
2020/12/28 04:55:57;;;;;;;7.50;3.90;;;;;;;-3.28;91.97;100283.91;4938362;29;20051;-72
2020/12/28 04:58:43;;;;;;;6.22;3.85;;;;;;;-3.30;91.33;100277.97;4942875;28;20091;-68
2020/12/28 05:01:30;;;;;;;5.75;3.60;;;;;;;-3.30;91.03;100288.19;4942638;29;20051;-72
2020/12/28 05:04:17;;;;;;;7.55;3.45;;;;;;;-3.30;91.36;100283.09;4942239;29;20059;-71
2020/12/28 05:07:05;;;;;;;5.85;3.38;;;;;;;-3.26;91.53;100283.91;4940572;29;20047;-71
2020/12/28 05:09:52;;;;;;;5.57;3.33;;;;;;;-3.31;91.05;100280.56;4943759;28;20054;-66
2020/12/28 05:12:38;;;;;;;5.75;3.55;;;;;;;-3.30;90.93;100272.88;4941066;29;20078;-70
2020/12/28 05:15:25;;;;;;;6.22;3.80;;;;;;;-3.32;91.79;100287.41;4942632;29;20415;-70
2020/12/28 05:18:14;;;;;;;6.18;3.60;;;;;;;-3.31;91.45;100298.47;4941166;29;20083;-66
2020/12/28 05:21:00;;;;;;;5.65;3.28;;;;;;;-3.32;91.70;100291.63;4942272;29;20052;-69
2020/12/28 05:23:47;;;;;;;6.55;3.35;;;;;;;-3.32;91.04;100301.88;4943061;29;22118;-68
2020/12/28 05:26:37;;;;;;;5.60;3.85;;;;;;;-3.31;90.79;100296.75;4942164;29;20565;-71
2020/12/28 05:29:28;;;;;;;6.00;3.65;;;;;;;-3.29;91.10;100314.63;4942328;29;20047;-69
2020/12/28 05:32:15;;;;;;;9.02;3.45;;;;;;;-3.28;91.00;100306.91;4942123;29;20114;-70
2020/12/28 05:35:04;;;;;;;5.80;3.63;;;;;;;-3.27;91.02;100311.19;4937028;29;20067;-68
2020/12/28 05:37:50;;;;;;;6.35;3.88;;;;;;;-3.28;90.81;100319.69;4939761;29;20055;-67
2020/12/28 05:40:38;;;;;;;6.15;3.70;;;;;;;-3.29;90.89;100315.47;4937634;29;20360;-67
2020/12/28 05:43:28;;;;;;;6.53;3.03;;;;;;;-3.31;90.99;100319.75;4940344;29;20056;-68
2020/12/28 05:46:24;;;;;;;7.68;3.30;;;;;;;-3.30;91.05;100318.88;4966909;28;20188;-71
2020/12/28 05:49:14;;;;;;;5.57;3.50;;;;;;;-3.33;91.27;100316.38;4938400;29;20499;-71
2020/12/28 05:52:02;;;;;;;5.53;3.42;;;;;;;-3.32;91.51;100330.00;4940929;28;20439;-66
2020/12/28 05:54:57;;;;;;;6.00;3.40;;;;;;;-3.30;91.91;100329.13;4940242;29;20083;-67
2020/12/28 05:57:44;;;;;;;7.65;3.92;;;;;;;-3.30;91.85;100333.38;4941815;29;20134;-66
2020/12/28 06:00:37;;;;;;;5.50;3.35;;;;;;;-3.32;91.40;100341.09;4941264;29;20098;-71
2020/12/28 06:03:25;;;;;;;5.30;3.40;;;;;;;-3.31;91.27;100339.38;4941681;29;20113;-69
2020/12/28 06:06:15;;;;;;;6.70;3.33;;;;;;;-3.31;91.55;100347.88;4941852;29;20043;-67
2020/12/28 06:09:01;;;;;;;5.63;3.67;;;;;;;-3.30;91.27;100341.06;4941303;29;20078;-73
2020/12/28 06:11:48;;;;;;;5.38;3.50;;;;;;;-3.32;91.94;100348.75;4941014;29;20051;-71
2020/12/28 06:14:39;;;;;;;5.75;3.85;;;;;;;-3.29;91.27;100342.75;4941299;29;20411;-70
2020/12/28 06:17:36;;;;;;;5.40;3.17;;;;;;;-3.32;91.20;100341.09;4941243;29;20059;-73
2020/12/28 06:20:31;;;;;;;5.07;3.47;;;;;;;-3.28;91.69;100347.81;4941179;29;20075;-70
2020/12/28 06:23:27;;;;;;;5.50;3.40;;;;;;;-3.30;91.77;100336.78;4940540;29;20051;-70
2020/12/28 06:26:18;;;;;;;6.43;3.55;;;;;;;-3.27;91.79;100341.88;4941604;29;20055;-72
2020/12/28 06:29:06;;;;;;;5.40;3.00;;;;;;;-3.29;92.58;100340.19;4940544;28;20047;-70
2020/12/28 06:31:53;;;;;;;6.30;4.10;;;;;;;-3.29;91.66;100356.38;4935894;29;20129;-71
2020/12/28 06:34:40;;;;;;;4.57;3.03;;;;;;;-3.27;92.50;100341.88;4938626;29;20118;-69
2020/12/28 06:37:27;;;;;;;6.13;3.83;;;;;;;-3.27;92.54;100338.47;4941304;29;20446;-72
2020/12/28 06:40:26;;;;;;;6.05;3.45;;;;;;;-3.25;91.94;100341.84;4944535;28;20122;-69
2020/12/28 06:43:15;;;;;;;6.88;3.60;;;;;;;-3.25;92.11;100341.84;4940853;29;20549;-71
2020/12/28 06:46:01;;;;;;;8.55;3.53;;;;;;;-3.25;92.66;100350.34;4940702;28;20048;-71
2020/12/28 06:48:48;;;;;;;6.20;3.60;;;;;;;-3.25;92.31;100352.91;4943942;29;20106;-65
2020/12/28 06:51:35;;;;;;;6.57;3.40;;;;;;;-3.22;91.86;100362.25;4940692;29;20521;-70
2020/12/28 06:54:22;;;;;;;8.25;3.50;;;;;;;-3.24;92.93;100364.81;4940591;29;20118;-68
2020/12/28 06:57:09;;;;;;;5.82;3.45;;;;;;;-3.22;92.73;100365.66;4940320;29;20055;-69
2020/12/28 06:59:56;;;;;;;5.45;3.35;;;;;;;-3.20;92.55;100369.03;4940602;29;20107;-70
2020/12/28 07:02:48;;;;;;;7.53;3.20;;;;;;;-3.20;92.40;100379.25;4940288;29;20047;-71
2020/12/28 07:05:36;;;;;;;7.03;3.38;;;;;;;-3.19;92.86;100388.63;4940107;29;20553;-70
2020/12/28 07:08:27;;;;;;;5.93;3.65;;;;;;;-3.17;92.65;100392.03;4941091;29;20078;-72
2020/12/28 07:11:19;;;;;;;7.22;3.72;;;;;;;-3.16;92.68;100395.41;4939285;29;20069;-73
2020/12/28 07:14:06;;;;;;;7.28;3.15;;;;;;;-3.12;92.50;100395.34;4939906;29;20043;-69
2020/12/28 07:16:54;;;;;;;4.95;2.72;;;;;;;-3.13;91.85;100388.56;4939929;29;20047;-70
2020/12/28 07:19:40;;;;;;;6.03;3.15;;;;;;;-3.11;92.35;100391.94;4939457;28;20048;-68
2020/12/28 07:22:32;;;;;;;6.38;3.78;;;;;;;-3.07;91.99;100395.28;4939702;29;20055;-67
2020/12/28 07:25:18;;;;;;;6.78;3.08;;;;;;;-3.07;92.65;100408.09;4936919;28;20105;-70
2020/12/28 07:28:05;;;;;;;6.15;3.55;;;;;;;-3.06;91.80;100416.59;4937261;29;20059;-69
2020/12/28 07:30:57;;;;;;;7.95;3.78;;;;;;;-3.05;92.56;100420.84;4939857;28;20106;-72
2020/12/28 07:33:47;;;;;;;5.85;3.33;;;;;;;-3.05;92.77;100426.81;4939551;29;20047;-68
2020/12/28 07:36:34;;;;;;;6.43;3.45;;;;;;;-3.03;92.66;100435.31;4939818;29;20050;-69
2020/12/28 07:39:20;;;;;;;5.10;3.17;;;;;;;-3.03;92.49;100440.44;4938611;29;20047;-68
2020/12/28 07:42:07;;;;;;;5.57;2.92;;;;;;;-3.00;91.48;100439.53;4939847;28;20145;-69
2020/12/28 07:44:57;;;;;;;6.03;3.15;;;;;;;-3.02;92.04;100442.13;4951455;29;20085;-67
2020/12/28 07:47:49;;;;;;;5.57;3.20;;;;;;;-2.98;91.98;100451.44;4939587;29;20047;-71
2020/12/28 07:50:37;;;;;;;6.72;3.72;;;;;;;-2.98;91.77;100451.44;4939521;29;20055;-71
2020/12/28 07:53:31;;;;;;;5.32;3.20;;;;;;;-2.94;91.57;100463.34;4940601;29;20117;-71
2020/12/28 07:56:38;;;;;;;8.98;3.30;;;;;;;-2.98;91.58;100464.25;4935666;29;20044;-70
2020/12/28 07:59:55;;;;;;;5.82;3.00;;;;;;;-2.94;91.19;100458.22;4939288;28;20098;-71
2020/12/28 08:02:48;;;;;;;5.93;3.50;;;;;;;-2.97;90.82;100458.25;4939337;29;20455;-68
2020/12/28 08:05:35;;;;;;;7.53;3.42;;;;;;;-2.97;91.93;100465.09;4938771;29;20395;-69
2020/12/28 08:08:23;;;;;;;6.63;3.67;;;;;;;-2.94;91.54;100460.78;4939032;28;20147;-70
2020/12/28 08:11:09;;;;;;;6.72;3.42;;;;;;;-2.89;91.47;100463.28;4938794;28;20047;-68
2020/12/28 08:13:57;;;;;;;7.72;3.42;;;;;;;-2.91;91.35;100462.44;4938352;29;20098;-71
2020/12/28 08:16:43;;;;;;;6.60;4.15;;;;;;;-2.92;90.47;100468.44;4939587;29;20043;-71
2020/12/28 08:19:30;;;;;;;7.35;3.65;;;;;;;-2.94;90.56;100470.16;4939322;29;20051;-71
2020/12/28 08:22:22;;;;;;;5.97;3.75;;;;;;;-2.92;91.40;100465.88;4938765;29;20657;-70
2020/12/28 08:25:11;;;;;;;6.20;3.70;;;;;;;-2.91;91.28;100475.22;4939055;29;20431;-70
2020/12/28 08:27:59;;;;;;;8.35;3.85;;;;;;;-2.89;91.31;100476.06;4937836;28;20510;-68
2020/12/28 08:30:46;;;;;;;7.43;4.07;;;;;;;-2.93;91.22;100475.25;4938570;29;20130;-69
2020/12/28 08:33:35;;;;;;;7.35;3.72;;;;;;;-2.90;91.03;100480.31;4939066;29;20055;-67
2020/12/28 08:36:25;;;;;;;6.30;3.72;;;;;;;-2.87;91.28;100471.75;4939103;29;20111;-67
2020/12/28 08:39:15;;;;;;;7.40;3.70;;;;;;;-2.87;91.22;100482.00;4938527;29;20138;-69
2020/12/28 08:42:02;;;;;;;6.28;4.13;;;;;;;-2.90;90.99;100480.31;4936768;29;20059;-66
2020/12/28 08:44:49;;;;;;;6.45;3.88;;;;;;;-2.87;91.39;100482.84;4938778;29;20106;-67
2020/12/28 08:47:35;;;;;;;6.30;3.70;;;;;;;-2.87;90.98;100474.31;4938492;29;20405;-68
2020/12/28 08:50:23;;;;;;;6.82;4.07;;;;;;;-2.84;91.08;100487.94;4938276;29;20046;-72
2020/12/28 08:53:10;;;;;;;7.68;4.05;;;;;;;-2.86;90.98;100491.38;4939047;29;20075;-69
2020/12/28 08:55:58;;;;;;;6.40;3.97;;;;;;;-2.90;90.59;100469.25;4938633;29;20056;-68
2020/12/28 08:58:48;;;;;;;7.13;4.63;;;;;;;-2.84;90.81;100471.72;4938790;29;20142;-68
2020/12/28 09:01:34;;;;;;;6.70;4.60;;;;;;;-2.86;90.08;100476.00;4936796;29;20146;-73
2020/12/28 09:04:21;;;;;;;6.57;3.78;;;;;;;-2.81;90.18;100481.06;4940476;29;20047;-69
2020/12/28 09:07:09;;;;;;;7.07;4.10;;;;;;;-2.82;91.02;100480.22;4939546;28;20047;-66
2020/12/28 09:09:55;;;;;;;7.80;4.28;;;;;;;-2.76;91.09;100486.97;4940709;28;20097;-71
2020/12/28 09:12:42;;;;;;;6.03;3.90;;;;;;;-2.79;89.84;100487.88;4938483;29;20043;-69
2020/12/28 09:15:28;;;;;;;7.47;4.60;;;;;;;-2.74;90.58;100496.34;4937983;29;20075;-68
2020/12/28 09:18:15;;;;;;;6.95;4.10;;;;;;;-2.74;90.63;100503.16;4938842;29;20391;-69
2020/12/28 09:21:01;;;;;;;7.20;4.78;;;;;;;-2.77;90.56;100500.63;4937913;29;20083;-66
2020/12/28 09:23:48;;;;;;;6.88;4.18;;;;;;;-2.73;89.95;100508.25;4951515;29;20490;-69
2020/12/28 09:26:35;;;;;;;8.15;4.38;;;;;;;-2.74;90.07;100506.56;4938455;29;20053;-71
2020/12/28 09:29:22;;;;;;;7.95;4.75;;;;;;;-2.71;90.26;100497.97;4938282;29;20138;-71
2020/12/28 09:32:09;;;;;;;8.23;4.60;;;;;;;-2.76;89.60;100503.16;4949466;29;20090;-65
2020/12/28 09:34:55;;;;;;;8.45;4.47;;;;;;;-2.74;89.94;100503.16;4938225;28;20087;-70
2020/12/28 09:37:41;;;;;;;8.30;5.07;;;;;;;-2.71;90.52;100510.78;4935419;29;20134;-70
2020/12/28 09:40:28;;;;;;;7.28;4.78;;;;;;;-2.73;90.68;100513.38;4951814;28;20695;-67
2020/12/28 09:43:14;;;;;;;8.18;5.28;;;;;;;-2.71;89.64;100506.50;4940327;29;20126;-68
2020/12/28 09:46:01;;;;;;;7.70;5.18;;;;;;;-2.69;89.88;100504.78;4941425;29;20569;-69
2020/12/28 09:48:49;;;;;;;7.75;4.38;;;;;;;-2.69;90.47;100509.06;4941503;29;20514;-68
2020/12/28 09:51:35;;;;;;;8.40;5.18;;;;;;;-2.71;89.48;100518.47;4941660;29;20050;-69
2020/12/28 09:54:23;;;;;;;8.25;4.78;;;;;;;-2.67;89.98;100505.59;4941330;29;20129;-69
2020/12/28 09:57:29;;;;;;;7.75;4.82;;;;;;;-2.63;90.17;100501.28;4941653;29;20398;-73
2020/12/28 10:00:16;;;;;;;6.95;4.70;;;;;;;-2.59;89.19;100506.34;4941593;28;20043;-70
2020/12/28 10:03:02;;;;;;;7.53;4.45;;;;;;;-2.56;90.05;100510.59;4941405;29;20047;-71
2020/12/28 10:05:48;;;;;;;9.85;5.43;;;;;;;-2.57;88.99;100508.88;4941039;29;20570;-70
2020/12/28 10:08:35;;;;;;;9.85;5.18;;;;;;;-2.58;90.06;100507.19;4941768;29;20047;-69
2020/12/28 10:11:22;;;;;;;7.85;5.15;;;;;;;-2.59;89.52;100508.91;4941725;29;20524;-69
2020/12/28 10:14:08;;;;;;;6.72;4.47;;;;;;;-2.60;90.37;100506.38;4953348;29;20043;-67
2020/12/28 10:16:54;;;;;;;8.70;5.60;;;;;;;-2.60;90.09;100504.66;4940583;29;20118;-71
2020/12/28 10:19:41;;;;;;;10.02;5.38;;;;;;;-2.56;90.54;100502.91;4940938;28;20044;-70
2020/12/28 10:22:28;;;;;;;9.45;5.63;;;;;;;-2.57;89.46;100496.06;4937778;29;20051;-67
2020/12/28 10:25:15;;;;;;;10.25;5.55;;;;;;;-2.57;90.23;100493.50;4940703;29;20518;-70
2020/12/28 10:28:02;;;;;;;8.30;5.18;;;;;;;-2.51;90.29;100500.28;4941207;29;20143;-68
2020/12/28 10:30:48;;;;;;;7.47;4.78;;;;;;;-2.51;90.84;100505.41;4940731;29;20817;-70
2020/12/28 10:33:38;;;;;;;8.75;5.65;;;;;;;-2.53;89.84;100492.59;4940629;29;20410;-69
2020/12/28 10:36:25;;;;;;;9.00;5.65;;;;;;;-2.55;89.79;100506.31;4938995;29;20106;-68
2020/12/28 10:39:32;;;;;;;8.73;5.35;;;;;;;-2.50;90.13;100510.50;4940436;29;20043;-68
2020/12/28 10:42:18;;;;;;;9.95;4.93;;;;;;;-2.48;90.91;100515.59;4940763;28;20102;-67
2020/12/28 10:45:05;;;;;;;8.82;5.70;;;;;;;-2.49;90.75;100514.75;4940907;29;20052;-70
2020/12/28 10:47:52;;;;;;;9.05;5.30;;;;;;;-2.49;91.28;100513.91;4940544;29;20043;-72
2020/12/28 10:50:38;;;;;;;9.88;5.25;;;;;;;-2.48;90.83;100516.44;4940619;29;20063;-70
2020/12/28 10:53:25;;;;;;;7.97;5.32;;;;;;;-2.45;90.88;100518.97;4940604;28;20145;-69
2020/12/28 10:56:11;;;;;;;8.30;5.35;;;;;;;-2.46;91.32;100522.41;4939914;29;20051;-69
2020/12/28 10:58:58;;;;;;;8.00;5.30;;;;;;;-2.49;91.84;100517.31;4940366;29;20090;-67
2020/12/28 11:01:45;;;;;;;7.78;5.15;;;;;;;-2.49;91.06;100509.63;4940846;28;20546;-72
2020/12/28 11:04:31;;;;;;;9.15;5.05;;;;;;;-2.50;92.17;100514.78;4940289;29;20533;-70
2020/12/28 11:07:18;;;;;;;10.10;5.72;;;;;;;-2.46;91.08;100517.28;4938443;29;20142;-72
2020/12/28 11:10:05;;;;;;;6.95;4.88;;;;;;;-2.44;92.32;100523.22;4939698;29;20047;-65
2020/12/28 11:12:52;;;;;;;8.93;5.60;;;;;;;-2.46;91.57;100521.56;4940414;28;20062;-68
2020/12/28 11:15:38;;;;;;;8.35;4.82;;;;;;;-2.46;92.10;100522.41;4953424;29;20499;-68
2020/12/28 11:18:24;;;;;;;8.73;5.60;;;;;;;-2.45;91.55;100524.09;4938812;29;20585;-68
2020/12/28 11:21:11;;;;;;;8.68;5.88;;;;;;;-2.46;91.59;100529.25;4940605;28;20499;-70
2020/12/28 11:24:03;;;;;;;8.38;5.05;;;;;;;-2.47;92.51;100525.84;4939612;29;20577;-67
2020/12/28 11:26:49;;;;;;;8.73;5.20;;;;;;;-2.48;92.31;100518.16;4939878;29;20098;-69
2020/12/28 11:29:36;;;;;;;9.52;5.32;;;;;;;-2.44;92.18;100512.13;4940081;29;20059;-72
2020/12/28 11:32:22;;;;;;;7.43;4.90;;;;;;;-2.45;91.80;100515.56;4939820;29;20074;-68
2020/12/28 11:35:09;;;;;;;7.53;4.38;;;;;;;-2.48;91.71;100511.31;4940000;29;20047;-69
2020/12/28 11:37:55;;;;;;;7.57;4.70;;;;;;;-2.45;91.11;100513.84;4937348;29;20051;-70
2020/12/28 11:40:42;;;;;;;8.15;4.65;;;;;;;-2.46;91.51;100516.44;4939975;29;20043;-71
2020/12/28 11:43:28;;;;;;;7.85;4.85;;;;;;;-2.47;91.57;100507.91;4937589;29;20110;-66
2020/12/28 11:46:15;;;;;;;8.02;4.47;;;;;;;-2.45;92.03;100507.88;4940032;29;20499;-71
2020/12/28 11:49:01;;;;;;;7.15;4.60;;;;;;;-2.45;91.12;100513.00;4939653;28;20043;-68
2020/12/28 11:51:54;;;;;;;8.95;4.60;;;;;;;-2.46;92.29;100513.88;4936081;29;20051;-72
2020/12/28 11:54:41;;;;;;;6.85;4.13;;;;;;;-2.48;91.33;100516.44;4939593;29;20047;-69
2020/12/28 11:57:28;;;;;;;8.63;4.63;;;;;;;-2.49;92.22;100507.06;4939202;29;20421;-72
2020/12/28 12:00:14;;;;;;;7.95;4.65;;;;;;;-2.50;91.61;100513.06;4939994;29;20062;-68
2020/12/28 12:03:00;;;;;;;7.90;4.45;;;;;;;-2.48;91.34;100506.19;4939624;28;20106;-71
2020/12/28 12:05:47;;;;;;;6.70;4.40;;;;;;;-2.50;91.28;100502.81;4938624;29;20528;-69
2020/12/28 12:08:33;;;;;;;7.90;5.00;;;;;;;-2.48;92.03;100511.31;4939273;29;20142;-69
2020/12/28 12:11:19;;;;;;;6.63;4.60;;;;;;;-2.48;92.00;100503.63;4939570;29;20091;-69
2020/12/28 12:14:06;;;;;;;7.22;4.80;;;;;;;-2.48;91.45;100505.34;4936112;29;20086;-71
2020/12/28 12:16:54;;;;;;;6.38;4.13;;;;;;;-2.49;92.47;100504.50;4940648;29;20117;-70
2020/12/28 12:19:40;;;;;;;5.55;3.72;;;;;;;-2.50;92.01;100500.25;4939110;28;20402;-71
2020/12/28 12:22:27;;;;;;;7.68;5.07;;;;;;;-2.50;91.65;100504.53;4939502;29;20106;-69
2020/12/28 12:25:13;;;;;;;7.60;4.55;;;;;;;-2.48;91.39;100500.22;4939317;29;20078;-70
2020/12/28 12:28:00;;;;;;;7.90;4.32;;;;;;;-2.50;92.32;100497.69;4939348;28;20048;-68
2020/12/28 12:30:47;;;;;;;7.88;4.28;;;;;;;-2.49;91.39;100504.50;4938776;29;20142;-69
2020/12/28 12:33:33;;;;;;;6.85;3.67;;;;;;;-2.52;91.66;100503.69;4939556;29;20083;-70
2020/12/28 12:36:20;;;;;;;6.90;4.05;;;;;;;-2.52;91.42;100507.09;4938035;29;20138;-69
2020/12/28 12:39:06;;;;;;;8.00;4.20;;;;;;;-2.51;91.98;100518.22;4952728;29;20118;-68
2020/12/28 12:41:53;;;;;;;6.47;3.92;;;;;;;-2.53;92.46;100507.97;4938252;29;20047;-68
2020/12/28 12:44:42;;;;;;;6.05;4.18;;;;;;;-2.56;91.54;100502.91;4938662;29;20207;-69
2020/12/28 12:47:29;;;;;;;6.97;4.45;;;;;;;-2.54;92.04;100511.41;4938753;29;20055;-68
2020/12/28 12:50:15;;;;;;;6.78;4.68;;;;;;;-2.53;92.12;100522.50;4939194;28;20134;-72
2020/12/28 12:53:02;;;;;;;6.32;4.15;;;;;;;-2.55;92.42;100512.28;4938762;29;20051;-68
2020/12/28 12:55:48;;;;;;;7.53;4.68;;;;;;;-2.55;91.68;100519.97;4939063;29;20063;-70
2020/12/28 12:58:36;;;;;;;7.53;4.25;;;;;;;-2.56;91.40;100531.06;4938831;29;20051;-70
2020/12/28 13:01:22;;;;;;;7.07;4.63;;;;;;;-2.60;92.30;100512.34;4939268;29;20043;-71
2020/12/28 13:04:30;;;;;;;6.25;3.80;;;;;;;-2.59;92.23;100520.88;4935288;28;20043;-71
2020/12/28 13:07:15;;;;;;;7.13;4.70;;;;;;;-2.60;91.76;100516.63;4942420;28;20153;-72